sensor_id;sensor_type;location;lat;lon;timestamp;pressure;altitude;pressure_sealevel;temperature;humidity
20023;BME280;10172;42.054;24.546;2022-07-04T00:02:24;98367.59;;;20.00;100.00
20023;BME280;10172;42.054;24.546;2022-07-04T00:04:49;98360.44;;;19.91;100.00
20023;BME280;10172;42.054;24.546;2022-07-04T00:07:15;98364.00;;;20.25;100.00
20023;BME280;10172;42.054;24.546;2022-07-04T00:09:40;98361.81;;;20.79;100.00
20023;BME280;10172;42.054;24.546;2022-07-04T00:12:06;98357.84;;;21.07;100.00
20023;BME280;10172;42.054;24.546;2022-07-04T00:14:32;98344.03;;;20.18;100.00
20023;BME280;10172;42.054;24.546;2022-07-04T00:16:57;98352.84;;;19.61;100.00
20023;BME280;10172;42.054;24.546;2022-07-04T00:19:23;98349.94;;;20.14;100.00
20023;BME280;10172;42.054;24.546;2022-07-04T00:21:48;98335.47;;;19.89;100.00
20023;BME280;10172;42.054;24.546;2022-07-04T00:24:14;98346.97;;;20.33;100.00
20023;BME280;10172;42.054;24.546;2022-07-04T00:26:39;98345.19;;;20.08;100.00
20023;BME280;10172;42.054;24.546;2022-07-04T00:29:04;98349.13;;;20.21;100.00
20023;BME280;10172;42.054;24.546;2022-07-04T00:31:30;98344.34;;;20.49;100.00
20023;BME280;10172;42.054;24.546;2022-07-04T00:33:55;98353.41;;;20.06;100.00
20023;BME280;10172;42.054;24.546;2022-07-04T00:36:21;98347.44;;;19.61;100.00
20023;BME280;10172;42.054;24.546;2022-07-04T00:38:46;98336.19;;;19.99;100.00
20023;BME280;10172;42.054;24.546;2022-07-04T00:41:12;98340.59;;;20.34;100.00
20023;BME280;10172;42.054;24.546;2022-07-04T00:43:38;98335.81;;;20.28;100.00
20023;BME280;10172;42.054;24.546;2022-07-04T00:46:04;98349.72;;;20.41;100.00
20023;BME280;10172;42.054;24.546;2022-07-04T00:48:31;98350.38;;;20.01;100.00
20023;BME280;10172;42.054;24.546;2022-07-04T00:50:57;98345.47;;;19.97;100.00
20023;BME280;10172;42.054;24.546;2022-07-04T00:53:23;98348.66;;;19.92;100.00
20023;BME280;10172;42.054;24.546;2022-07-04T00:55:52;98339.28;;;19.79;100.00
20023;BME280;10172;42.054;24.546;2022-07-04T00:58:22;98347.84;;;19.74;100.00
20023;BME280;10172;42.054;24.546;2022-07-04T01:00:48;98343.78;;;19.27;100.00
20023;BME280;10172;42.054;24.546;2022-07-04T01:03:15;98333.91;;;19.35;100.00
20023;BME280;10172;42.054;24.546;2022-07-04T01:05:42;98334.25;;;19.84;100.00
20023;BME280;10172;42.054;24.546;2022-07-04T01:08:08;98331.44;;;19.93;100.00
20023;BME280;10172;42.054;24.546;2022-07-04T01:10:33;98326.47;;;19.55;100.00
20023;BME280;10172;42.054;24.546;2022-07-04T01:12:59;98325.03;;;19.94;100.00
20023;BME280;10172;42.054;24.546;2022-07-04T01:15:25;98325.53;;;19.64;100.00
20023;BME280;10172;42.054;24.546;2022-07-04T01:17:50;98332.84;;;19.46;100.00
20023;BME280;10172;42.054;24.546;2022-07-04T01:20:16;98325.25;;;19.75;100.00
20023;BME280;10172;42.054;24.546;2022-07-04T01:22:43;98314.91;;;19.96;100.00
20023;BME280;10172;42.054;24.546;2022-07-04T01:25:09;98310.19;;;19.98;100.00
20023;BME280;10172;42.054;24.546;2022-07-04T01:27:35;98300.16;;;19.49;100.00
20023;BME280;10172;42.054;24.546;2022-07-04T01:30:00;98304.53;;;19.50;100.00
20023;BME280;10172;42.054;24.546;2022-07-04T01:32:26;98299.81;;;19.52;100.00
20023;BME280;10172;42.054;24.546;2022-07-04T01:34:52;98298.56;;;19.38;100.00
20023;BME280;10172;42.054;24.546;2022-07-04T01:37:17;98300.34;;;19.30;100.00
20023;BME280;10172;42.054;24.546;2022-07-04T01:39:43;98296.69;;;19.39;100.00
20023;BME280;10172;42.054;24.546;2022-07-04T01:42:08;98304.88;;;19.29;100.00
20023;BME280;10172;42.054;24.546;2022-07-04T01:44:34;98306.84;;;19.45;100.00
20023;BME280;10172;42.054;24.546;2022-07-04T01:47:01;98307.16;;;18.63;100.00
20023;BME280;10172;42.054;24.546;2022-07-04T01:49:27;98295.72;;;18.34;100.00
20023;BME280;10172;42.054;24.546;2022-07-04T01:51:53;98278.91;;;18.85;100.00
20023;BME280;10172;42.054;24.546;2022-07-04T01:54:19;98282.13;;;18.88;100.00
20023;BME280;10172;42.054;24.546;2022-07-04T01:56:44;98283.69;;;18.91;100.00
20023;BME280;10172;42.054;24.546;2022-07-04T01:59:10;98282.50;;;19.37;100.00
20023;BME280;10172;42.054;24.546;2022-07-04T02:01:37;98287.44;;;19.67;100.00
20023;BME280;10172;42.054;24.546;2022-07-04T02:04:04;98291.03;;;19.50;100.00
20023;BME280;10172;42.054;24.546;2022-07-04T02:06:30;98303.19;;;18.67;100.00
20023;BME280;10172;42.054;24.546;2022-07-04T02:08:56;98286.72;;;18.70;100.00
20023;BME280;10172;42.054;24.546;2022-07-04T02:11:40;98290.22;;;18.88;100.00
20023;BME280;10172;42.054;24.546;2022-07-04T02:14:25;98305.78;;;18.59;100.00
20023;BME280;10172;42.054;24.546;2022-07-04T02:16:50;98311.28;;;18.40;100.00
20023;BME280;10172;42.054;24.546;2022-07-04T02:19:16;98304.00;;;18.85;100.00
20023;BME280;10172;42.054;24.546;2022-07-04T02:21:42;98314.19;;;18.91;100.00
20023;BME280;10172;42.054;24.546;2022-07-04T02:24:07;98314.00;;;19.10;100.00
20023;BME280;10172;42.054;24.546;2022-07-04T02:26:33;98315.91;;;19.00;100.00
20023;BME280;10172;42.054;24.546;2022-07-04T02:28:58;98317.47;;;18.50;100.00
20023;BME280;10172;42.054;24.546;2022-07-04T02:31:24;98326.63;;;19.10;100.00
20023;BME280;10172;42.054;24.546;2022-07-04T02:33:49;98330.28;;;18.83;100.00
20023;BME280;10172;42.054;24.546;2022-07-04T02:36:15;98323.38;;;19.06;100.00
20023;BME280;10172;42.054;24.546;2022-07-04T02:38:40;98330.88;;;19.13;100.00
20023;BME280;10172;42.054;24.546;2022-07-04T02:41:06;98331.06;;;19.88;100.00
20023;BME280;10172;42.054;24.546;2022-07-04T02:43:31;98331.59;;;19.23;100.00
20023;BME280;10172;42.054;24.546;2022-07-04T02:45:56;98340.19;;;19.18;100.00
20023;BME280;10172;42.054;24.546;2022-07-04T02:48:22;98340.66;;;18.96;100.00
20023;BME280;10172;42.054;24.546;2022-07-04T02:50:47;98342.56;;;19.39;100.00
20023;BME280;10172;42.054;24.546;2022-07-04T02:53:13;98351.06;;;19.08;100.00
20023;BME280;10172;42.054;24.546;2022-07-04T02:55:38;98362.28;;;18.51;100.00
20023;BME280;10172;42.054;24.546;2022-07-04T02:58:03;98356.97;;;18.77;100.00
20023;BME280;10172;42.054;24.546;2022-07-04T03:00:29;98360.22;;;18.80;100.00
20023;BME280;10172;42.054;24.546;2022-07-04T03:02:54;98361.66;;;19.28;100.00
20023;BME280;10172;42.054;24.546;2022-07-04T03:05:20;98370.97;;;18.63;100.00
20023;BME280;10172;42.054;24.546;2022-07-04T03:07:45;98358.56;;;18.52;100.00
20023;BME280;10172;42.054;24.546;2022-07-04T03:10:11;98372.16;;;18.95;100.00
20023;BME280;10172;42.054;24.546;2022-07-04T03:12:37;98372.63;;;18.46;100.00
20023;BME280;10172;42.054;24.546;2022-07-04T03:15:03;98365.53;;;18.72;100.00
20023;BME280;10172;42.054;24.546;2022-07-04T03:17:28;98370.88;;;18.27;100.00
20023;BME280;10172;42.054;24.546;2022-07-04T03:19:56;98364.16;;;18.41;100.00
20023;BME280;10172;42.054;24.546;2022-07-04T03:22:21;98359.53;;;18.96;100.00
20023;BME280;10172;42.054;24.546;2022-07-04T03:24:47;98362.09;;;18.97;100.00
20023;BME280;10172;42.054;24.546;2022-07-04T03:27:12;98367.16;;;18.83;100.00
20023;BME280;10172;42.054;24.546;2022-07-04T03:29:38;98369.16;;;18.98;100.00
20023;BME280;10172;42.054;24.546;2022-07-04T03:32:04;98366.00;;;18.85;100.00
20023;BME280;10172;42.054;24.546;2022-07-04T03:34:29;98365.88;;;19.30;100.00
20023;BME280;10172;42.054;24.546;2022-07-04T03:36:55;98365.88;;;19.30;100.00
20023;BME280;10172;42.054;24.546;2022-07-04T03:39:20;98354.19;;;19.39;100.00
20023;BME280;10172;42.054;24.546;2022-07-04T03:41:47;98356.75;;;18.88;100.00
20023;BME280;10172;42.054;24.546;2022-07-04T03:44:12;98362.22;;;18.96;100.00
20023;BME280;10172;42.054;24.546;2022-07-04T03:46:38;98346.69;;;19.33;100.00
20023;BME280;10172;42.054;24.546;2022-07-04T03:49:03;98355.00;;;18.79;100.00
20023;BME280;10172;42.054;24.546;2022-07-04T03:51:29;98352.06;;;18.45;100.00
20023;BME280;10172;42.054;24.546;2022-07-04T03:53:54;98350.44;;;18.79;100.00
20023;BME280;10172;42.054;24.546;2022-07-04T03:56:19;98356.59;;;18.17;100.00
20023;BME280;10172;42.054;24.546;2022-07-04T03:58:45;98352.19;;;18.26;100.00
20023;BME280;10172;42.054;24.546;2022-07-04T04:01:20;98362.53;;;18.75;100.00
20023;BME280;10172;42.054;24.546;2022-07-04T04:03:46;98351.00;;;19.44;100.00
20023;BME280;10172;42.054;24.546;2022-07-04T04:06:30;98355.16;;;19.56;100.00
20023;BME280;10172;42.054;24.546;2022-07-04T04:08:56;98349.91;;;19.11;100.00
20023;BME280;10172;42.054;24.546;2022-07-04T04:11:22;98360.41;;;19.83;100.00
20023;BME280;10172;42.054;24.546;2022-07-04T04:13:48;98357.22;;;19.01;100.00
20023;BME280;10172;42.054;24.546;2022-07-04T04:16:13;98353.56;;;19.45;100.00
20023;BME280;10172;42.054;24.546;2022-07-04T04:18:39;98352.16;;;19.93;100.00
20023;BME280;10172;42.054;24.546;2022-07-04T04:21:05;98353.34;;;20.74;100.00
20023;BME280;10172;42.054;24.546;2022-07-04T04:23:30;98357.53;;;20.18;100.00
20023;BME280;10172;42.054;24.546;2022-07-04T04:25:56;98345.16;;;21.16;100.00
20023;BME280;10172;42.054;24.546;2022-07-04T04:28:22;98353.78;;;21.52;100.00
20023;BME280;10172;42.054;24.546;2022-07-04T04:30:48;98351.03;;;20.03;100.00
20023;BME280;10172;42.054;24.546;2022-07-04T04:33:13;98348.56;;;19.76;100.00
20023;BME280;10172;42.054;24.546;2022-07-04T04:35:38;98356.16;;;20.14;100.00
20023;BME280;10172;42.054;24.546;2022-07-04T04:38:04;98353.31;;;20.16;100.00
20023;BME280;10172;42.054;24.546;2022-07-04T04:40:29;98352.03;;;20.86;100.00
20023;BME280;10172;42.054;24.546;2022-07-04T04:42:55;98355.41;;;20.88;100.00
20023;BME280;10172;42.054;24.546;2022-07-04T04:45:21;98358.63;;;20.83;100.00
20023;BME280;10172;42.054;24.546;2022-07-04T04:47:47;98372.13;;;20.75;100.00
20023;BME280;10172;42.054;24.546;2022-07-04T04:50:12;98361.56;;;21.30;100.00
20023;BME280;10172;42.054;24.546;2022-07-04T04:52:40;98357.09;;;20.73;100.00
20023;BME280;10172;42.054;24.546;2022-07-04T04:55:06;98364.72;;;21.74;100.00
20023;BME280;10172;42.054;24.546;2022-07-04T04:57:32;98365.97;;;22.27;92.72
20023;BME280;10172;42.054;24.546;2022-07-04T04:59:57;98360.00;;;22.78;88.76
20023;BME280;10172;42.054;24.546;2022-07-04T05:02:23;98363.34;;;22.02;99.25
20023;BME280;10172;42.054;24.546;2022-07-04T05:24:09;98361.84;;;24.35;72.35
20023;BME280;10172;42.054;24.546;2022-07-04T05:26:36;98352.44;;;24.52;72.11
20023;BME280;10172;42.054;24.546;2022-07-04T05:29:02;98353.38;;;24.59;69.97
20023;BME280;10172;42.054;24.546;2022-07-04T05:31:28;98353.78;;;24.92;68.51
20023;BME280;10172;42.054;24.546;2022-07-04T05:33:54;98351.34;;;25.18;66.84
20023;BME280;10172;42.054;24.546;2022-07-04T05:36:22;98344.75;;;25.27;64.79
20023;BME280;10172;42.054;24.546;2022-07-04T05:38:47;98345.09;;;25.45;64.94
20023;BME280;10172;42.054;24.546;2022-07-04T05:41:13;98358.13;;;25.71;60.36
20023;BME280;10172;42.054;24.546;2022-07-04T05:43:39;98354.28;;;24.81;58.26
20023;BME280;10172;42.054;24.546;2022-07-04T05:46:04;98349.38;;;25.12;58.19
20023;BME280;10172;42.054;24.546;2022-07-04T05:48:29;98340.91;;;25.43;61.06
20023;BME280;10172;42.054;24.546;2022-07-04T05:50:55;98353.81;;;25.83;56.37
20023;BME280;10172;42.054;24.546;2022-07-04T05:53:20;98336.75;;;25.47;57.59
20023;BME280;10172;42.054;24.546;2022-07-04T05:55:46;98352.00;;;25.63;57.61
20023;BME280;10172;42.054;24.546;2022-07-04T05:58:11;98349.78;;;26.07;56.89
20023;BME280;10172;42.054;24.546;2022-07-04T06:00:37;98348.47;;;25.96;56.93
20023;BME280;10172;42.054;24.546;2022-07-04T06:03:07;98352.91;;;26.32;56.65
20023;BME280;10172;42.054;24.546;2022-07-04T06:05:33;98353.81;;;25.83;56.85
20023;BME280;10172;42.054;24.546;2022-07-04T06:07:59;98361.31;;;26.02;57.71
20023;BME280;10172;42.054;24.546;2022-07-04T06:10:24;98360.50;;;25.81;58.07
20023;BME280;10172;42.054;24.546;2022-07-04T06:12:50;98355.25;;;25.79;54.56
20023;BME280;10172;42.054;24.546;2022-07-04T06:15:15;98345.03;;;25.39;58.57
20023;BME280;10172;42.054;24.546;2022-07-04T06:17:41;98345.59;;;25.49;56.56
20023;BME280;10172;42.054;24.546;2022-07-04T06:20:07;98349.97;;;25.29;58.88
20023;BME280;10172;42.054;24.546;2022-07-04T06:22:46;98346.75;;;25.95;58.40
20023;BME280;10172;42.054;24.546;2022-07-04T06:25:16;98349.16;;;26.05;56.26
20023;BME280;10172;42.054;24.546;2022-07-04T06:27:43;98350.41;;;26.30;56.33
20023;BME280;10172;42.054;24.546;2022-07-04T06:30:10;98349.59;;;26.84;54.56
20023;BME280;10172;42.054;24.546;2022-07-04T06:32:43;98345.69;;;27.39;55.50
20023;BME280;10172;42.054;24.546;2022-07-04T06:35:09;98348.06;;;26.74;54.69
20023;BME280;10172;42.054;24.546;2022-07-04T06:37:53;98352.09;;;26.38;56.87
20023;BME280;10172;42.054;24.546;2022-07-04T06:40:19;98342.66;;;26.88;55.48
20023;BME280;10172;42.054;24.546;2022-07-04T06:42:44;98338.81;;;27.69;54.86
20023;BME280;10172;42.054;24.546;2022-07-04T06:45:10;98338.63;;;28.03;54.46
20023;BME280;10172;42.054;24.546;2022-07-04T06:47:35;98340.66;;;28.27;53.50
20023;BME280;10172;42.054;24.546;2022-07-04T06:50:01;98342.28;;;28.41;52.33
20023;BME280;10172;42.054;24.546;2022-07-04T06:52:26;98328.81;;;28.46;52.99
20023;BME280;10172;42.054;24.546;2022-07-04T06:54:52;98327.34;;;28.95;51.50
20023;BME280;10172;42.054;24.546;2022-07-04T06:57:18;98323.78;;;28.94;51.75
20023;BME280;10172;42.054;24.546;2022-07-04T06:59:43;98324.88;;;28.87;51.76
20023;BME280;10172;42.054;24.546;2022-07-04T07:02:09;98326.41;;;29.14;51.64
20023;BME280;10172;42.054;24.546;2022-07-04T07:04:34;98322.22;;;28.03;53.53
20023;BME280;10172;42.054;24.546;2022-07-04T07:06:59;98323.06;;;28.68;53.52
20023;BME280;10172;42.054;24.546;2022-07-04T07:09:25;98317.28;;;28.31;52.52
20023;BME280;10172;42.054;24.546;2022-07-04T07:11:50;98319.66;;;27.16;55.89
20023;BME280;10172;42.054;24.546;2022-07-04T07:14:16;98312.91;;;28.17;55.11
20023;BME280;10172;42.054;24.546;2022-07-04T07:16:41;98310.94;;;28.95;53.53
20023;BME280;10172;42.054;24.546;2022-07-04T07:19:07;98312.91;;;29.69;50.85
20023;BME280;10172;42.054;24.546;2022-07-04T07:21:32;98302.59;;;29.46;51.48
20023;BME280;10172;42.054;24.546;2022-07-04T07:23:57;98313.44;;;28.52;52.89
20023;BME280;10172;42.054;24.546;2022-07-04T07:26:25;98310.44;;;28.03;54.82
20023;BME280;10172;42.054;24.546;2022-07-04T07:28:51;98304.03;;;29.17;52.79
20023;BME280;10172;42.054;24.546;2022-07-04T07:31:16;98291.69;;;28.70;53.32
20023;BME280;10172;42.054;24.546;2022-07-04T07:33:41;98295.72;;;27.58;56.04
20023;BME280;10172;42.054;24.546;2022-07-04T07:36:07;98292.78;;;27.72;55.24
20023;BME280;10172;42.054;24.546;2022-07-04T07:38:32;98294.41;;;28.19;54.34
20023;BME280;10172;42.054;24.546;2022-07-04T07:40:58;98292.72;;;28.76;51.39
20023;BME280;10172;42.054;24.546;2022-07-04T07:43:23;98298.69;;;27.63;53.73
20023;BME280;10172;42.054;24.546;2022-07-04T07:45:49;98300.31;;;28.10;54.14
20023;BME280;10172;42.054;24.546;2022-07-04T07:48:14;98294.75;;;29.18;51.22
20023;BME280;10172;42.054;24.546;2022-07-04T07:50:39;98299.88;;;29.08;49.37
20023;BME280;10172;42.054;24.546;2022-07-04T07:53:05;98290.59;;;28.78;49.94
20023;BME280;10172;42.054;24.546;2022-07-04T07:55:30;98289.91;;;28.89;48.97
20023;BME280;10172;42.054;24.546;2022-07-04T07:57:56;98289.13;;;29.06;47.06
20023;BME280;10172;42.054;24.546;2022-07-04T08:00:24;98287.75;;;30.03;46.22
20023;BME280;10172;42.054;24.546;2022-07-04T08:02:49;98289.81;;;29.02;47.32
20023;BME280;10172;42.054;24.546;2022-07-04T08:05:33;98277.84;;;29.77;42.24
20023;BME280;10172;42.054;24.546;2022-07-04T08:07:58;98289.22;;;30.90;41.03
20023;BME280;10172;42.054;24.546;2022-07-04T08:10:25;98277.16;;;30.91;40.91
20023;BME280;10172;42.054;24.546;2022-07-04T08:12:50;98275.56;;;30.35;43.21
20023;BME280;10172;42.054;24.546;2022-07-04T08:15:17;98276.47;;;30.65;39.99
20023;BME280;10172;42.054;24.546;2022-07-04T08:17:42;98274.47;;;30.18;41.42
20023;BME280;10172;42.054;24.546;2022-07-04T08:20:08;98277.47;;;30.83;40.54
20023;BME280;10172;42.054;24.546;2022-07-04T08:22:34;98267.72;;;31.28;41.58
20023;BME280;10172;42.054;24.546;2022-07-04T08:24:59;98265.31;;;31.84;40.34
20023;BME280;10172;42.054;24.546;2022-07-04T08:27:25;98271.13;;;30.52;42.02
20023;BME280;10172;42.054;24.546;2022-07-04T08:29:51;98271.72;;;30.72;43.12
20023;BME280;10172;42.054;24.546;2022-07-04T08:32:16;98273.44;;;30.37;42.80
20023;BME280;10172;42.054;24.546;2022-07-04T08:34:42;98262.41;;;30.73;42.95
20023;BME280;10172;42.054;24.546;2022-07-04T08:37:12;98265.03;;;30.98;42.81
20023;BME280;10172;42.054;24.546;2022-07-04T08:39:37;98265.78;;;31.81;41.32
20023;BME280;10172;42.054;24.546;2022-07-04T08:42:06;98271.75;;;32.25;40.75
20023;BME280;10172;42.054;24.546;2022-07-04T08:44:39;98272.25;;;32.22;39.85
20023;BME280;10172;42.054;24.546;2022-07-04T08:47:08;98273.41;;;32.26;40.24
20023;BME280;10172;42.054;24.546;2022-07-04T08:49:34;98269.41;;;32.85;39.10
20023;BME280;10172;42.054;24.546;2022-07-04T08:52:05;98263.00;;;32.79;37.41
20023;BME280;10172;42.054;24.546;2022-07-04T08:54:32;98270.63;;;32.49;37.51
20023;BME280;10172;42.054;24.546;2022-07-04T08:57:16;98266.88;;;32.67;37.61
20023;BME280;10172;42.054;24.546;2022-07-04T09:00:02;98264.84;;;32.62;37.06
20023;BME280;10172;42.054;24.546;2022-07-04T09:02:28;98262.38;;;33.17;31.33
20023;BME280;10172;42.054;24.546;2022-07-04T09:04:55;98251.41;;;33.05;34.63
20023;BME280;10172;42.054;24.546;2022-07-04T09:07:20;98257.09;;;33.16;34.49
20023;BME280;10172;42.054;24.546;2022-07-04T09:09:46;98254.13;;;32.77;34.79
20023;BME280;10172;42.054;24.546;2022-07-04T09:12:12;98248.44;;;32.67;32.86
20023;BME280;10172;42.054;24.546;2022-07-04T09:14:39;98252.00;;;32.96;32.08
20023;BME280;10172;42.054;24.546;2022-07-04T09:17:05;98252.31;;;33.11;31.27
20023;BME280;10172;42.054;24.546;2022-07-04T09:19:31;98257.94;;;33.66;31.47
20023;BME280;10172;42.054;24.546;2022-07-04T09:22:02;98246.41;;;33.86;31.48
20023;BME280;10172;42.054;24.546;2022-07-04T09:24:50;98246.75;;;33.56;29.52
20023;BME280;10172;42.054;24.546;2022-07-04T09:27:36;98245.41;;;33.08;31.51
20023;BME280;10172;42.054;24.546;2022-07-04T09:30:03;98249.50;;;33.39;31.78
20023;BME280;10172;42.054;24.546;2022-07-04T09:32:53;98246.25;;;33.42;31.30
20023;BME280;10172;42.054;24.546;2022-07-04T09:35:26;98242.00;;;33.51;29.48
20023;BME280;10172;42.054;24.546;2022-07-04T09:37:54;98242.06;;;33.90;30.43
20023;BME280;10172;42.054;24.546;2022-07-04T09:40:25;98237.34;;;34.07;29.79
20023;BME280;10172;42.054;24.546;2022-07-04T09:42:52;98241.34;;;33.99;29.27
20023;BME280;10172;42.054;24.546;2022-07-04T09:45:17;98243.84;;;33.79;28.41
20023;BME280;10172;42.054;24.546;2022-07-04T09:47:45;98239.47;;;33.83;29.45
20023;BME280;10172;42.054;24.546;2022-07-04T09:50:18;98232.88;;;33.84;28.78
20023;BME280;10172;42.054;24.546;2022-07-04T09:53:00;98236.34;;;34.13;27.17
20023;BME280;10172;42.054;24.546;2022-07-04T09:55:36;98241.69;;;34.19;26.01
20023;BME280;10172;42.054;24.546;2022-07-04T09:58:09;98239.09;;;34.35;23.63
20023;BME280;10172;42.054;24.546;2022-07-04T10:00:36;98254.41;;;34.64;24.02
20023;BME280;10172;42.054;24.546;2022-07-04T10:03:18;98243.22;;;33.94;21.30
20023;BME280;10172;42.054;24.546;2022-07-04T10:05:45;98244.13;;;34.38;21.13
20023;BME280;10172;42.054;24.546;2022-07-04T10:08:11;98246.81;;;34.33;23.41
20023;BME280;10172;42.054;24.546;2022-07-04T10:10:38;98246.16;;;34.69;22.40
20023;BME280;10172;42.054;24.546;2022-07-04T10:13:09;98242.66;;;34.52;22.68
20023;BME280;10172;42.054;24.546;2022-07-04T10:15:37;98245.19;;;34.80;22.64
20023;BME280;10172;42.054;24.546;2022-07-04T10:18:05;98229.53;;;34.64;24.06
20023;BME280;10172;42.054;24.546;2022-07-04T10:20:31;98237.34;;;35.20;22.31
20023;BME280;10172;42.054;24.546;2022-07-04T10:22:57;98220.53;;;35.27;23.04
20023;BME280;10172;42.054;24.546;2022-07-04T10:25:23;98217.59;;;34.58;23.61
20023;BME280;10172;42.054;24.546;2022-07-04T10:27:48;98221.00;;;34.22;24.47
20023;BME280;10172;42.054;24.546;2022-07-04T10:30:22;98214.25;;;34.35;24.39
20023;BME280;10172;42.054;24.546;2022-07-04T10:32:47;98215.28;;;34.07;24.10
20023;BME280;10172;42.054;24.546;2022-07-04T10:35:15;98221.84;;;33.84;25.37
20023;BME280;10172;42.054;24.546;2022-07-04T10:40:39;98224.63;;;34.93;24.79
20023;BME280;10172;42.054;24.546;2022-07-04T10:48:28;98217.97;;;34.45;25.48
20023;BME280;10172;42.054;24.546;2022-07-04T10:51:05;98200.38;;;34.73;25.28
20023;BME280;10172;42.054;24.546;2022-07-04T10:53:31;98197.56;;;34.68;24.66
20023;BME280;10172;42.054;24.546;2022-07-04T10:58:52;98189.50;;;35.52;25.15
20023;BME280;10172;42.054;24.546;2022-07-04T11:01:19;98190.06;;;35.54;25.27
20023;BME280;10172;42.054;24.546;2022-07-04T11:09:17;98186.16;;;35.86;24.25
20023;BME280;10172;42.054;24.546;2022-07-04T11:14:47;98176.66;;;35.77;24.68
20023;BME280;10172;42.054;24.546;2022-07-04T11:17:20;98177.00;;;35.86;25.69
20023;BME280;10172;42.054;24.546;2022-07-04T11:19:47;98181.66;;;36.27;25.53
20023;BME280;10172;42.054;24.546;2022-07-04T11:22:21;98174.66;;;36.10;24.99
20023;BME280;10172;42.054;24.546;2022-07-04T11:24:48;98174.13;;;35.66;25.45
20023;BME280;10172;42.054;24.546;2022-07-04T11:27:13;98159.72;;;35.64;25.65
20023;BME280;10172;42.054;24.546;2022-07-04T11:29:49;98171.41;;;35.76;26.81
20023;BME280;10172;42.054;24.546;2022-07-04T11:32:14;98161.97;;;35.72;27.00
20023;BME280;10172;42.054;24.546;2022-07-04T11:34:40;98162.34;;;35.90;25.76
20023;BME280;10172;42.054;24.546;2022-07-04T11:37:06;98160.63;;;36.36;25.65
20023;BME280;10172;42.054;24.546;2022-07-04T11:39:31;98154.63;;;35.51;26.34
20023;BME280;10172;42.054;24.546;2022-07-04T11:41:57;98160.25;;;34.97;26.30
20023;BME280;10172;42.054;24.546;2022-07-04T11:44:41;98157.72;;;34.64;27.46
20023;BME280;10172;42.054;24.546;2022-07-04T11:47:41;98152.63;;;35.41;26.84
20023;BME280;10172;42.054;24.546;2022-07-04T11:50:09;98155.53;;;36.03;25.85
20023;BME280;10172;42.054;24.546;2022-07-04T11:52:46;98150.69;;;35.83;27.43
20023;BME280;10172;42.054;24.546;2022-07-04T11:55:14;98157.66;;;35.49;27.35
20023;BME280;10172;42.054;24.546;2022-07-04T11:57:47;98158.31;;;35.61;27.20
20023;BME280;10172;42.054;24.546;2022-07-04T12:00:15;98152.53;;;35.63;26.76
20023;BME280;10172;42.054;24.546;2022-07-04T12:02:41;98163.09;;;34.75;27.03
20023;BME280;10172;42.054;24.546;2022-07-04T12:05:09;98156.38;;;33.80;28.93
20023;BME280;10172;42.054;24.546;2022-07-04T12:07:38;98138.94;;;35.24;27.54
20023;BME280;10172;42.054;24.546;2022-07-04T12:10:14;98159.97;;;34.67;28.97
20023;BME280;10172;42.054;24.546;2022-07-04T12:12:53;98149.81;;;34.51;27.76
20023;BME280;10172;42.054;24.546;2022-07-04T12:15:21;98131.69;;;35.13;29.80
20023;BME280;10172;42.054;24.546;2022-07-04T12:17:51;98121.31;;;35.30;29.05
20023;BME280;10172;42.054;24.546;2022-07-04T12:20:18;98129.72;;;35.92;28.13
20023;BME280;10172;42.054;24.546;2022-07-04T12:25:29;98136.47;;;34.96;28.99
20023;BME280;10172;42.054;24.546;2022-07-04T12:27:58;98129.81;;;35.61;27.67
20023;BME280;10172;42.054;24.546;2022-07-04T12:30:25;98125.75;;;35.73;27.67
20023;BME280;10172;42.054;24.546;2022-07-04T12:32:52;98126.13;;;35.92;27.78
20023;BME280;10172;42.054;24.546;2022-07-04T12:43:18;98125.50;;;34.74;29.34
20023;BME280;10172;42.054;24.546;2022-07-04T12:48:25;98107.75;;;34.97;27.94
20023;BME280;10172;42.054;24.546;2022-07-04T12:50:51;98107.13;;;35.59;28.13
20023;BME280;10172;42.054;24.546;2022-07-04T12:53:18;98095.81;;;36.22;27.74
20023;BME280;10172;42.054;24.546;2022-07-04T12:55:45;98092.72;;;35.57;28.07
20023;BME280;10172;42.054;24.546;2022-07-04T12:58:11;98102.63;;;35.53;29.50
20023;BME280;10172;42.054;24.546;2022-07-04T13:00:37;98105.03;;;35.81;27.88
20023;BME280;10172;42.054;24.546;2022-07-04T13:03:04;98101.81;;;36.04;27.71
20023;BME280;10172;42.054;24.546;2022-07-04T13:05:29;98095.34;;;36.55;26.98
20023;BME280;10172;42.054;24.546;2022-07-04T13:07:55;98093.41;;;35.79;28.96
20023;BME280;10172;42.054;24.546;2022-07-04T13:10:20;98098.09;;;35.36;30.23
20023;BME280;10172;42.054;24.546;2022-07-04T13:12:46;98086.78;;;35.38;28.48
20023;BME280;10172;42.054;24.546;2022-07-04T13:15:11;98089.00;;;35.04;30.07
20023;BME280;10172;42.054;24.546;2022-07-04T13:17:37;98094.25;;;35.37;28.55
20023;BME280;10172;42.054;24.546;2022-07-04T13:20:03;98085.63;;;35.76;28.02
20023;BME280;10172;42.054;24.546;2022-07-04T13:22:29;98089.22;;;36.43;27.78
20023;BME280;10172;42.054;24.546;2022-07-04T13:24:55;98081.44;;;36.30;28.08
20023;BME280;10172;42.054;24.546;2022-07-04T13:27:20;98080.59;;;36.40;27.56
20023;BME280;10172;42.054;24.546;2022-07-04T13:29:46;98074.19;;;36.09;28.01
20023;BME280;10172;42.054;24.546;2022-07-04T13:32:12;98076.91;;;36.04;27.74
20023;BME280;10172;42.054;24.546;2022-07-04T13:34:37;98064.59;;;36.57;28.52
20023;BME280;10172;42.054;24.546;2022-07-04T13:37:03;98072.81;;;36.27;28.71
20023;BME280;10172;42.054;24.546;2022-07-04T13:39:29;98063.59;;;36.01;28.60